Погода Рехоботна 2 недели

Хардап, Намибия

22 февраля-06 марта
  • 22февраля
    Сегодня
    +22°
    +35°
    Небольшая облачность
    ВремяПогодаТемператураВлажностьДавлениеВетер, м/сВероятность осадков
    02:00Практически безоблачно+28°C35 %650 мм1.7 м/с5 %
    05:00Ясно и безоблачно+25°C38 %649 мм1.0 м/с5 %
    08:00Облачно с прояснениями+26°C32 %650 мм2.6 м/с5 %
    11:00Небольшая облачность+33°C22 %652 мм3.6 м/с5 %
    14:00Небольшая облачность+33°C19 %650 мм3.4 м/с2 %
    17:00Небольшая облачность+34°C21 %649 мм1.5 м/с48 %
    20:00Небольшая облачность+30°C36 %650 мм6.1 м/с49 %
    23:00Практически безоблачно+27°C45 %650 мм3.1 м/с14 %
  • 23февраля
    Пятница
    +23°
    +37°
    Небольшая облачность
    ВремяПогодаТемператураВлажностьДавлениеВетер, м/сВероятность осадков
    02:00Практически безоблачно+25°C51 %649 мм2.4 м/с3 %
    05:00Облачно с прояснениями+24°C49 %648 мм2.6 м/с5 %
    08:00Облачно с прояснениями+25°C40 %649 мм1.7 м/с5 %
    11:00Облачно с прояснениями+33°C24 %651 мм3.7 м/с5 %
    14:00Небольшая облачность+35°C19 %650 мм6.3 м/с9 %
    17:00Облачно с прояснениями+35°C18 %649 мм3.8 м/с20 %
    20:00Ясно и безоблачно+33°C22 %650 мм4.6 м/с27 %
    23:00Практически безоблачно+29°C20 %651 мм2.8 м/с10 %
  • 24февраля
    Суббота
    +20°
    +37°
    Практически безоблачно
    ВремяПогодаТемператураВлажностьДавлениеВетер, м/сВероятность осадков
    02:00Небольшая облачность+26°C27 %650 мм3.2 м/с8 %
    05:00Небольшая облачность+24°C40 %650 мм0.8 м/с24 %
    08:00Пасмурно, сплошная облачность+25°C47 %651 мм1.3 м/с16 %
    11:00Практически безоблачно+32°C25 %653 мм3.2 м/с7 %
    14:00Практически безоблачно+37°C17 %651 мм5.1 м/с4 %
    17:00Практически безоблачно+35°C17 %650 мм6.3 м/с20 %
    20:00Ясно и безоблачно+31°C16 %651 мм7.8 м/с7 %
    23:00Ясно и безоблачно+28°C19 %651 мм4.1 м/с4 %
  • 25февраля
    Воскресенье
    +21°
    +35°
    Ясно и безоблачно
    ВремяПогодаТемператураВлажностьДавлениеВетер, м/сВероятность осадков
    02:00Ясно и безоблачно+24°C26 %650 мм1.3 м/с3 %
    05:00Ясно и безоблачно+23°C24 %650 мм3.0 м/с6 %
    08:00Ясно и безоблачно+22°C29 %652 мм2.4 м/с4 %
    11:00Ясно и безоблачно+28°C18 %653 мм3.2 м/с5 %
    14:00Ясно и безоблачно+34°C12 %652 мм2.9 м/с5 %
    17:00Практически безоблачно+35°C10 %650 мм3.3 м/с3 %
    20:00Ясно и безоблачно+34°C9 %651 мм6.7 м/с3 %
    23:00Ясно и безоблачно+29°C12 %652 мм3.7 м/с3 %
  • 26февраля
    Понедельник
    +22°
    +36°
    Ясно и безоблачно
    ВремяПогодаТемператураВлажностьДавлениеВетер, м/сВероятность осадков
    02:00Ясно и безоблачно+26°C15 %651 мм3.3 м/с3 %
    05:00Ясно и безоблачно+24°C21 %650 мм3.8 м/с4 %
    08:00Ясно и безоблачно+23°C33 %652 мм2.1 м/с4 %
    11:00Ясно и безоблачно+29°C16 %652 мм3.7 м/с5 %
    14:00Ясно и безоблачно+35°C11 %651 мм2.5 м/с5 %
    17:00Практически безоблачно+36°C9 %649 мм2.6 м/с5 %
    20:00Ясно и безоблачно+33°C16 %650 мм9.2 м/с14 %
    23:00Ясно и безоблачно+28°C23 %651 мм5.1 м/с18 %
Мы используем cookies
Соглашаюсь